Terminal Aerodrome Forecast
Issued by NWS

Home | Current Version | Previous Version | Text Only | Print | Product List | Glossary On
Versions: 1 2 3 4 5 6 7 8 9 10 11 12 13 14 15 16 17 18 19 20 21 22 23 24 25 26
000
FTUS45 KGJT 282338
TAFEGE
TAF
KEGE 282338Z 2900/2924 27009KT P6SM FEW200
      TEMPO 2900/2903 30015G25KT
     FM290300 22005KT P6SM SCT200
     FM290400 14005KT P6SM SCT200
     FM291600 25005KT P6SM FEW250
     FM291700 25010KT P6SM FEW250
     FM292000 24017G27KT P6SM SCT150
      AMD LTD TO CLD VIS AND WIND 2901/2913=

USA.gov is the U.S. government's official web portal to all federal, state and local government web resources and services.